createdAt,value
2022-11-26T00:00:20.673Z,101419.94
2022-11-26T00:08:37.981Z,101428.63
2022-11-26T00:11:15.613Z,101430.88
2022-11-26T00:27:19.870Z,101449.41
2022-11-26T00:29:46.509Z,101447.03
2022-11-26T00:32:25.109Z,101447.34
2022-11-26T00:34:53.686Z,101457.72
2022-11-26T00:43:18.096Z,101458.50
2022-11-26T00:45:50.468Z,101476.78
2022-11-26T00:48:19.119Z,101480.72
2022-11-26T00:50:51.478Z,101483.88
2022-11-26T00:53:25.966Z,101476.56
2022-11-26T00:55:55.204Z,101494.22
2022-11-26T00:58:30.322Z,101493.53
2022-11-26T01:01:00.671Z,101492.03
2022-11-26T01:03:27.374Z,101493.75
2022-11-26T01:05:58.967Z,101497.66
2022-11-26T01:08:36.023Z,101502.72
2022-11-26T01:11:05.838Z,101505.81
2022-11-26T01:13:33.206Z,101505.13
2022-11-26T01:16:02.621Z,101509.00
2022-11-26T01:18:35.289Z,101519.91
2022-11-26T01:21:02.030Z,101518.97
2022-11-26T01:23:28.690Z,101522.78
2022-11-26T01:25:55.531Z,101520.88
2022-11-26T01:28:24.797Z,101518.66
2022-11-26T01:30:51.433Z,101527.53
2022-11-26T01:33:18.010Z,101530.41
2022-11-26T01:35:44.875Z,101531.25
2022-11-26T01:38:15.444Z,101541.09
2022-11-26T01:41:20.926Z,101537.94
2022-11-26T01:43:51.870Z,101541.75
2022-11-26T01:46:22.559Z,101532.69
2022-11-26T01:48:50.745Z,101541.19
2022-11-26T01:51:28.317Z,101545.59
2022-11-26T01:54:00.808Z,101545.50
2022-11-26T01:56:49.788Z,101549.59
2022-11-26T01:59:50.193Z,101552.34
2022-11-26T02:02:19.130Z,101556.41
2022-11-26T02:05:24.230Z,101564.41
2022-11-26T02:07:53.508Z,101561.75
2022-11-26T02:10:20.305Z,101560.00
2022-11-26T02:12:47.914Z,101560.22
2022-11-26T02:15:14.760Z,101573.56
2022-11-26T02:18:08.194Z,101573.84
2022-11-26T02:21:25.991Z,101573.38
2022-11-26T02:24:47.211Z,101576.13
2022-11-26T02:28:01.983Z,101574.59
2022-11-26T02:30:39.702Z,101581.16
2022-11-26T02:33:35.082Z,101582.50
2022-11-26T02:36:38.262Z,101585.53
2022-11-26T02:39:22.197Z,101591.91
2022-11-26T02:41:54.907Z,101591.41
2022-11-26T02:44:40.602Z,101594.16
2022-11-26T02:47:18.606Z,101595.13
2022-11-26T02:49:52.526Z,101597.97
2022-11-26T02:52:23.341Z,101604.28
2022-11-26T02:54:54.502Z,101608.13
2022-11-26T02:57:30.445Z,101613.66
2022-11-26T03:00:09.049Z,101617.19
2022-11-26T03:02:50.940Z,101622.63
2022-11-26T03:05:25.700Z,101622.81
2022-11-26T03:07:55.315Z,101631.78
2022-11-26T03:10:31.054Z,101635.38
2022-11-26T03:12:58.668Z,101623.75
2022-11-26T03:15:25.571Z,101624.88
2022-11-26T03:17:52.278Z,101633.47
2022-11-26T03:20:19.032Z,101641.56
2022-11-26T03:22:46.074Z,101643.31
2022-11-26T03:25:13.306Z,101638.75
2022-11-26T03:27:39.953Z,101644.94
2022-11-26T03:30:08.221Z,101643.38
2022-11-26T03:32:36.140Z,101646.84
2022-11-26T03:35:04.376Z,101659.41
2022-11-26T03:37:31.605Z,101653.22
2022-11-26T03:39:58.357Z,101654.16
2022-11-26T03:42:25.268Z,101661.03
2022-11-26T03:44:51.930Z,101657.19
2022-11-26T03:47:19.018Z,101654.31
2022-11-26T03:49:45.895Z,101661.22
2022-11-26T03:52:13.087Z,101665.50
2022-11-26T03:54:40.153Z,101665.50
2022-11-26T03:57:07.972Z,101670.59
2022-11-26T03:59:34.699Z,101666.22
2022-11-26T04:02:01.496Z,101668.75
2022-11-26T04:04:28.506Z,101671.53
2022-11-26T04:06:55.987Z,101676.69
2022-11-26T04:09:23.377Z,101675.00
2022-11-26T04:11:50.223Z,101676.44
2022-11-26T04:14:17.408Z,101687.91
2022-11-26T04:16:44.176Z,101684.25
2022-11-26T04:19:10.930Z,101692.88
2022-11-26T04:21:37.669Z,101687.53
2022-11-26T04:24:04.855Z,101688.22
2022-11-26T04:26:31.528Z,101688.06
2022-11-26T04:28:58.234Z,101693.13
2022-11-26T04:31:24.955Z,101690.06
2022-11-26T04:33:52.114Z,101690.56
2022-11-26T04:36:18.885Z,101687.47
2022-11-26T04:38:45.487Z,101696.25
2022-11-26T04:41:12.255Z,101700.28
2022-11-26T04:43:38.937Z,101701.91
2022-11-26T04:46:05.939Z,101706.47
2022-11-26T04:48:32.689Z,101710.78
2022-11-26T04:50:59.315Z,101710.78
2022-11-26T04:53:26.039Z,101709.72
2022-11-26T04:55:53.366Z,101725.53
2022-11-26T04:58:22.174Z,101724.28
2022-11-26T05:00:51.335Z,101717.13
2022-11-26T05:03:19.439Z,101721.41
2022-11-26T05:05:47.170Z,101723.16
2022-11-26T05:08:14.556Z,101715.78
2022-11-26T05:10:41.769Z,101718.38
2022-11-26T05:13:08.936Z,101725.28
2022-11-26T05:15:35.657Z,101729.66
2022-11-26T05:18:03.611Z,101738.38
2022-11-26T05:20:30.335Z,101744.91
2022-11-26T05:22:59.662Z,101743.44
2022-11-26T05:25:26.295Z,101743.09
2022-11-26T05:27:52.948Z,101747.28
2022-11-26T05:30:20.183Z,101755.03
2022-11-26T05:32:46.798Z,101760.78
2022-11-26T05:35:13.655Z,101757.84
2022-11-26T05:37:40.347Z,101760.09
2022-11-26T05:40:11.887Z,101762.69
2022-11-26T05:42:39.525Z,101763.56
2022-11-26T05:45:09.997Z,101752.00
2022-11-26T05:47:36.698Z,101763.25
2022-11-26T05:50:04.221Z,101770.34
2022-11-26T05:52:31.020Z,101769.09
2022-11-26T05:54:57.690Z,101774.16
2022-11-26T05:57:24.376Z,101775.69
2022-11-26T05:59:51.347Z,101777.22
2022-11-26T06:02:18.472Z,101779.69
2022-11-26T06:04:45.220Z,101786.72
2022-11-26T06:07:14.934Z,101783.91
2022-11-26T06:09:46.424Z,101785.53
2022-11-26T06:12:13.212Z,101781.91
2022-11-26T06:14:43.208Z,101780.94
2022-11-26T06:17:11.947Z,101784.47
2022-11-26T06:19:39.786Z,101794.25
2022-11-26T06:22:09.231Z,101797.88
2022-11-26T06:24:36.588Z,101801.44
2022-11-26T06:27:03.815Z,101811.94
2022-11-26T06:29:30.922Z,101807.66
2022-11-26T06:31:57.638Z,101802.38
2022-11-26T06:34:24.387Z,101802.66
2022-11-26T06:36:51.449Z,101820.47
2022-11-26T06:39:18.221Z,101810.13
2022-11-26T06:41:45.126Z,101816.56
2022-11-26T06:44:14.926Z,101817.69
2022-11-26T06:46:41.644Z,101812.63
2022-11-26T06:49:14.196Z,101815.59
2022-11-26T06:51:40.895Z,101819.31
2022-11-26T06:54:11.622Z,101844.28
2022-11-26T07:02:00.913Z,101850.97
2022-11-26T07:04:27.795Z,101845.13
2022-11-26T07:07:01.772Z,101844.78
2022-11-26T07:33:47.571Z,101889.38
2022-11-26T07:36:30.451Z,101897.41
2022-11-26T07:49:48.634Z,101896.09
2022-11-26T07:57:36.754Z,101890.34
2022-11-26T08:00:05.277Z,101901.81
2022-11-26T08:02:31.944Z,101896.66
2022-11-26T08:23:44.849Z,101917.00
2022-11-26T08:26:30.641Z,101917.50
2022-11-26T08:32:02.708Z,101927.00
2022-11-26T09:17:40.996Z,101946.38
2022-11-26T09:31:01.577Z,101951.91
2022-11-26T09:33:29.874Z,101966.94
2022-11-26T09:59:32.192Z,101974.16
2022-11-26T10:47:31.616Z,102006.53
2022-11-26T10:50:19.403Z,102009.72
2022-11-26T10:58:39.720Z,102011.53
2022-11-26T11:06:44.227Z,102008.66
2022-11-26T11:32:40.670Z,102029.31
2022-11-26T11:35:31.347Z,102034.91
2022-11-26T11:46:52.530Z,102028.72
2022-11-26T11:50:17.597Z,102029.28
2022-11-26T12:10:22.237Z,102019.72
2022-11-26T12:12:59.101Z,102023.38
2022-11-26T12:15:45.028Z,102018.81
2022-11-26T12:47:54.074Z,102017.28
2022-11-26T12:50:38.189Z,102015.47
2022-11-26T13:06:01.580Z,102019.59
2022-11-26T13:09:03.661Z,102015.09
2022-11-26T13:12:08.113Z,102017.22
2022-11-26T13:15:12.091Z,102022.38
2022-11-26T13:17:48.019Z,102022.44
2022-11-26T13:20:44.595Z,102022.44
2022-11-26T13:24:18.644Z,102023.44
2022-11-26T13:27:22.185Z,102022.75
2022-11-26T13:30:03.577Z,102015.38
2022-11-26T13:32:43.448Z,102013.56
2022-11-26T13:35:49.406Z,102003.59
2022-11-26T13:38:52.706Z,102008.09
2022-11-26T13:41:52.083Z,102017.78
2022-11-26T13:44:40.619Z,102009.94
2022-11-26T13:47:19.583Z,102004.56
2022-11-26T13:50:32.377Z,102001.88
2022-11-26T13:53:23.712Z,102006.34
2022-11-26T13:56:05.289Z,102006.28
2022-11-26T13:59:07.129Z,102011.63
2022-11-26T14:01:40.945Z,102020.66
2022-11-26T14:04:15.930Z,102026.09
2022-11-26T14:07:08.623Z,102025.25
2022-11-26T14:10:02.102Z,102025.63
2022-11-26T14:13:03.231Z,102024.94
2022-11-26T14:15:42.043Z,102029.47
2022-11-26T14:18:17.594Z,102029.56
2022-11-26T14:20:59.751Z,102023.91
2022-11-26T14:23:41.766Z,102028.41
2022-11-26T14:26:37.046Z,102019.50
2022-11-26T14:29:13.239Z,102030.50
2022-11-26T14:31:54.647Z,102022.56
2022-11-26T14:34:49.111Z,102031.56
2022-11-26T14:37:20.810Z,102031.56
2022-11-26T14:40:08.061Z,102038.75
2022-11-26T14:42:37.843Z,102037.22
2022-11-26T14:45:23.797Z,102043.53
2022-11-26T14:47:55.480Z,102035.59
2022-11-26T14:50:25.158Z,102044.78
2022-11-26T14:53:04.739Z,102040.28
2022-11-26T14:55:37.387Z,102041.13
2022-11-26T14:58:14.964Z,102044.69
2022-11-26T15:00:44.686Z,102040.19
2022-11-26T15:03:25.698Z,102041.03
2022-11-26T15:05:52.372Z,102041.13
2022-11-26T15:08:27.001Z,102032.44
2022-11-26T15:11:11.060Z,102042.19
2022-11-26T15:13:46.468Z,102034.16
2022-11-26T15:16:38.163Z,102043.16
2022-11-26T15:19:07.378Z,102055.97
2022-11-26T15:21:40.514Z,102055.03
2022-11-26T15:24:09.106Z,102060.38
2022-11-26T15:26:38.067Z,102044.38
2022-11-26T15:29:41.345Z,102055.03
2022-11-26T15:32:30.829Z,102047.06
2022-11-26T15:35:02.939Z,102048.88
2022-11-26T15:37:29.903Z,102050.72
2022-11-26T15:40:33.627Z,102057.91
2022-11-26T15:43:04.435Z,102045.63
2022-11-26T15:45:41.184Z,102055.50
2022-11-26T15:48:50.505Z,102051.06
2022-11-26T15:51:36.262Z,102046.69
2022-11-26T15:54:43.436Z,102049.53
2022-11-26T15:57:34.932Z,102055.75
2022-11-26T16:00:40.314Z,102045.91
2022-11-26T16:03:38.423Z,102053.84
2022-11-26T16:06:11.888Z,102059.13
2022-11-26T16:08:43.034Z,102055.66
2022-11-26T16:11:21.751Z,102050.38
2022-11-26T16:13:48.389Z,102050.38
2022-11-26T16:16:24.697Z,102056.81
2022-11-26T16:19:01.696Z,102068.41
2022-11-26T16:21:36.736Z,102073.00
2022-11-26T16:24:34.630Z,102067.78
2022-11-26T16:27:08.865Z,102074.19
2022-11-26T16:29:36.016Z,102076.09
2022-11-26T16:32:05.656Z,102071.84
2022-11-26T16:34:32.237Z,102075.50
2022-11-26T16:37:31.815Z,102080.66
2022-11-26T16:40:14.053Z,102078.88
2022-11-26T16:42:40.744Z,102079.91
2022-11-26T16:45:12.945Z,102086.91
2022-11-26T16:47:49.952Z,102085.09
2022-11-26T16:50:24.346Z,102084.97
2022-11-26T16:52:55.205Z,102085.75
2022-11-26T16:55:26.467Z,102077.06
2022-11-26T16:58:01.421Z,102079.38
2022-11-26T17:00:35.674Z,102067.88
2022-11-26T17:03:02.367Z,102075.72
2022-11-26T17:05:29.116Z,102066.91
2022-11-26T17:08:01.035Z,102065.97
2022-11-26T17:10:30.382Z,102075.56
2022-11-26T17:13:00.168Z,102072.03
2022-11-26T17:15:26.809Z,102074.78
2022-11-26T17:18:05.093Z,102078.34
2022-11-26T17:20:31.854Z,102071.56
2022-11-26T17:22:58.645Z,102086.22
2022-11-26T17:25:30.342Z,102073.09
2022-11-26T17:28:09.811Z,102078.53
2022-11-26T17:30:39.103Z,102088.47
2022-11-26T18:16:09.692Z,102070.28
2022-11-26T18:37:38.292Z,102072.94
2022-11-26T18:40:10.572Z,102069.63
2022-11-26T18:42:38.554Z,102067.22
2022-11-26T19:34:06.216Z,102070.78
2022-11-26T19:36:33.992Z,102062.81
2022-11-26T19:41:45.260Z,102065.50
2022-11-26T20:38:04.707Z,102043.31
2022-11-26T20:51:35.028Z,102050.81
2022-11-26T20:54:02.395Z,102054.25
2022-11-26T20:56:29.525Z,102047.16
2022-11-26T20:58:56.622Z,102052.34
2022-11-26T21:09:31.494Z,102057.25
2022-11-26T21:33:28.135Z,102053.19
2022-11-26T22:00:27.251Z,102048.97
2022-11-26T22:27:19.846Z,102045.63
2022-11-26T22:40:32.244Z,102046.03
2022-11-26T22:43:01.522Z,102050.34
2022-11-26T22:45:29.731Z,102050.34
2022-11-26T22:50:44.497Z,102050.16
2022-11-26T22:56:02.609Z,102059.94
2022-11-26T22:58:33.039Z,102062.50
2022-11-26T23:01:08.435Z,102065.09
2022-11-26T23:06:25.314Z,102065.00
2022-11-26T23:38:30.873Z,102011.06
2022-11-26T23:41:02.934Z,102007.41
2022-11-26T23:43:33.378Z,102002.06
2022-11-26T23:46:13.671Z,101988.75
2022-11-26T23:48:41.922Z,101985.97
2022-11-26T23:51:23.343Z,101981.47
